createdAt,value
2023-01-17T00:05:08.744Z,98073.28
2023-01-17T00:10:16.564Z,98082.63
2023-01-17T00:15:20.030Z,98074.97
2023-01-17T00:20:46.373Z,98084.34
2023-01-17T00:26:03.025Z,98106.41
2023-01-17T00:31:06.444Z,98112.34
2023-01-17T00:36:08.788Z,98110.63
2023-01-17T00:41:14.581Z,98121.66
2023-01-17T00:46:35.038Z,98128.44
2023-01-17T00:51:56.271Z,98150.53
2023-01-17T00:57:16.911Z,98153.84
2023-01-17T01:02:37.841Z,98164.06
2023-01-17T01:07:57.689Z,98162.28
2023-01-17T01:13:17.605Z,98188.59
2023-01-17T01:18:37.541Z,98215.34
2023-01-17T01:23:57.867Z,98221.75
2023-01-17T01:29:17.639Z,98241.72
2023-01-17T01:34:19.156Z,98239.94
2023-01-17T01:39:20.538Z,98229.06
2023-01-17T01:44:58.827Z,98240.16
2023-01-17T01:50:04.146Z,98263.09
2023-01-17T01:55:10.916Z,98263.16
2023-01-17T02:00:35.182Z,98280.19
2023-01-17T02:05:36.719Z,98279.28
2023-01-17T02:10:40.095Z,98283.50
2023-01-17T02:15:53.922Z,98307.25
2023-01-17T02:21:09.123Z,98313.28
2023-01-17T02:26:41.162Z,98327.69
2023-01-17T02:31:58.735Z,98337.03
2023-01-17T02:37:28.553Z,98346.41
2023-01-17T02:42:37.727Z,98335.25
2023-01-17T02:47:39.092Z,98344.50
2023-01-17T02:53:05.019Z,98359.28
2023-01-17T02:58:26.673Z,98354.78
2023-01-17T03:03:46.501Z,98349.78
2023-01-17T03:08:51.828Z,98333.72
2023-01-17T03:13:57.554Z,98359.19
2023-01-17T03:18:59.220Z,98363.34
2023-01-17T03:24:00.714Z,98368.34
2023-01-17T03:29:02.258Z,98356.47
2023-01-17T03:34:03.655Z,98376.81
2023-01-17T03:39:05.025Z,98381.69
2023-01-17T03:44:06.439Z,98374.06
2023-01-17T03:49:09.528Z,98388.38
2023-01-17T03:54:10.981Z,98395.19
2023-01-17T03:59:13.327Z,98400.31
2023-01-17T04:04:15.267Z,98404.66
2023-01-17T04:09:16.685Z,98407.38
2023-01-17T04:14:18.089Z,98407.31
2023-01-17T04:19:19.997Z,98409.03
2023-01-17T04:24:21.371Z,98410.78
2023-01-17T04:29:22.804Z,98415.09
2023-01-17T04:34:24.380Z,98413.41
2023-01-17T04:39:25.837Z,98411.72
2023-01-17T04:44:27.223Z,98413.50
2023-01-17T04:49:28.684Z,98416.88
2023-01-17T04:54:30.087Z,98412.69
2023-01-17T04:59:31.578Z,98416.91
2023-01-17T05:04:33.007Z,98423.53
2023-01-17T05:09:34.437Z,98431.31
2023-01-17T05:14:35.922Z,98418.59
2023-01-17T05:19:37.484Z,98421.06
2023-01-17T05:24:38.943Z,98422.75
2023-01-17T05:29:40.885Z,98439.63
2023-01-17T05:34:42.247Z,98429.50
2023-01-17T05:39:43.694Z,98439.66
2023-01-17T05:44:45.067Z,98436.03
2023-01-17T05:49:46.549Z,98446.13
2023-01-17T05:54:48.039Z,98446.06
2023-01-17T05:59:49.446Z,98457.00
2023-01-17T06:04:50.902Z,98457.72
2023-01-17T06:09:52.356Z,98457.66
2023-01-17T06:14:53.802Z,98463.63
2023-01-17T06:19:55.168Z,98468.56
2023-01-17T06:24:56.553Z,98472.66
2023-01-17T06:29:58.071Z,98464.97
2023-01-17T06:34:59.506Z,98466.88
2023-01-17T06:40:00.964Z,98486.50
2023-01-17T06:45:02.390Z,98472.03
2023-01-17T06:50:04.273Z,98480.69
2023-01-17T06:55:06.560Z,98482.41
2023-01-17T07:00:11.323Z,98488.44
2023-01-17T07:05:12.767Z,98488.34
2023-01-17T07:10:15.147Z,98507.00
2023-01-17T07:15:16.789Z,98514.50
2023-01-17T07:20:18.311Z,98510.28
2023-01-17T07:25:30.627Z,98507.59
2023-01-17T07:30:32.631Z,98508.56
2023-01-17T07:35:34.112Z,98501.75
2023-01-17T07:40:41.766Z,98506.84
2023-01-17T07:45:51.492Z,98508.66
2023-01-17T07:50:57.768Z,98508.56
2023-01-17T07:56:07.541Z,98514.56
2023-01-17T08:01:11.829Z,98517.09
2023-01-17T08:06:18.583Z,98521.34
2023-01-17T08:11:20.056Z,98517.91
2023-01-17T08:16:21.745Z,98521.16
2023-01-17T08:21:23.724Z,98528.03
2023-01-17T08:26:25.344Z,98522.13
2023-01-17T08:31:32.359Z,98524.53
2023-01-17T08:36:33.696Z,98522.81
2023-01-17T08:41:36.057Z,98527.16
2023-01-17T08:46:38.687Z,98531.41
2023-01-17T08:51:42.717Z,98528.06
2023-01-17T08:56:44.670Z,98533.13
2023-01-17T09:01:46.231Z,98535.78
2023-01-17T09:06:48.484Z,98548.44
2023-01-17T09:11:50.078Z,98544.97
2023-01-17T09:16:51.572Z,98545.06
2023-01-17T09:21:53.062Z,98556.19
2023-01-17T09:26:54.478Z,98555.34
2023-01-17T09:31:56.166Z,98564.66
2023-01-17T09:36:59.743Z,98568.91
2023-01-17T09:42:20.590Z,98576.63
2023-01-17T09:47:45.034Z,98585.31
2023-01-17T09:52:46.899Z,98578.69
2023-01-17T09:58:02.344Z,98591.50
2023-01-17T10:03:31.838Z,98594.16
2023-01-17T10:08:55.283Z,98598.50
2023-01-17T10:13:56.692Z,98610.38
2023-01-17T10:19:13.492Z,98609.50
2023-01-17T10:24:29.612Z,98605.34
2023-01-17T10:29:34.907Z,98604.50
2023-01-17T10:34:42.114Z,98595.16
2023-01-17T10:39:46.464Z,98596.91
2023-01-17T10:44:50.780Z,98598.84
2023-01-17T10:49:55.124Z,98601.47
2023-01-17T10:55:50.228Z,98605.75
2023-01-17T11:01:03.120Z,98610.13
2023-01-17T11:06:17.164Z,98612.66
2023-01-17T11:11:21.340Z,98616.97
2023-01-17T11:16:32.071Z,98610.22
2023-01-17T11:21:33.940Z,98608.47
2023-01-17T11:26:36.955Z,98602.75
2023-01-17T11:31:38.389Z,98598.81
2023-01-17T11:36:39.913Z,98601.81
2023-01-17T11:41:41.982Z,98607.84
2023-01-17T11:46:43.465Z,98593.38
2023-01-17T11:51:44.828Z,98598.75
2023-01-17T11:56:46.526Z,98601.22
2023-01-17T12:01:58.040Z,98603.34
2023-01-17T12:07:21.106Z,98604.00
2023-01-17T12:13:04.078Z,98604.00
2023-01-17T12:18:27.384Z,98606.53
2023-01-17T12:23:28.729Z,98601.44
2023-01-17T12:28:40.844Z,98611.09
2023-01-17T12:33:53.559Z,98613.09
2023-01-17T12:38:56.514Z,98612.56
2023-01-17T12:44:00.798Z,98612.59
2023-01-17T12:49:29.948Z,98608.88
2023-01-17T12:54:40.005Z,98610.66
2023-01-17T12:59:50.480Z,98610.56
2023-01-17T13:04:59.347Z,98620.38
2023-01-17T13:10:17.258Z,98619.63
2023-01-17T13:15:24.570Z,98609.28
2023-01-17T13:20:53.923Z,98614.44
2023-01-17T13:25:58.363Z,98626.28
2023-01-17T13:31:18.635Z,98621.09
2023-01-17T13:36:39.943Z,98622.88
2023-01-17T13:41:50.632Z,98633.81
2023-01-17T13:47:02.341Z,98639.59
2023-01-17T13:52:24.051Z,98634.47
2023-01-17T13:57:30.380Z,98643.63
2023-01-17T14:02:31.968Z,98652.13
2023-01-17T14:07:37.026Z,98651.28
2023-01-17T14:12:38.868Z,98649.50
2023-01-17T14:17:51.615Z,98648.56
2023-01-17T14:22:56.081Z,98656.94
2023-01-17T14:28:03.128Z,98658.47
2023-01-17T14:33:16.924Z,98657.53
2023-01-17T14:38:29.928Z,98658.41
2023-01-17T14:43:34.787Z,98654.13
2023-01-17T14:48:39.442Z,98651.34
2023-01-17T14:53:53.647Z,98649.72
2023-01-17T14:59:22.017Z,98657.22
2023-01-17T15:04:31.179Z,98655.28
2023-01-17T15:09:37.047Z,98662.81
2023-01-17T15:14:42.461Z,98663.53
2023-01-17T15:19:45.622Z,98668.44
2023-01-17T15:24:49.056Z,98678.53
2023-01-17T15:29:50.893Z,98675.69
2023-01-17T15:34:52.674Z,98679.75
2023-01-17T15:40:06.827Z,98684.50
2023-01-17T15:45:15.511Z,98689.94
2023-01-17T15:50:20.243Z,98695.69
2023-01-17T15:55:27.535Z,98696.94
2023-01-17T16:00:39.197Z,98694.66
2023-01-17T16:05:43.557Z,98692.59
2023-01-17T16:10:45.288Z,98695.06
2023-01-17T16:15:46.777Z,98689.72
2023-01-17T16:21:22.569Z,98695.34
2023-01-17T16:26:24.658Z,98700.94
2023-01-17T16:31:26.097Z,98699.03
2023-01-17T16:36:27.848Z,98703.88
2023-01-17T16:41:29.288Z,98707.09
2023-01-17T16:46:31.637Z,98711.84
2023-01-17T16:51:34.581Z,98712.47
2023-01-17T16:56:36.043Z,98713.22
2023-01-17T17:01:37.596Z,98718.16
2023-01-17T17:06:39.628Z,98720.06
2023-01-17T17:11:42.025Z,98734.59
2023-01-17T17:16:44.381Z,98737.13
2023-01-17T17:21:46.209Z,98738.66
2023-01-17T17:26:47.859Z,98741.03
2023-01-17T17:31:49.464Z,98752.63
2023-01-17T17:36:52.965Z,98752.72
2023-01-17T17:41:56.171Z,98746.53
2023-01-17T17:46:57.839Z,98764.13
2023-01-17T17:52:08.870Z,98769.88
2023-01-17T17:57:11.539Z,98782.22
2023-01-17T18:02:14.101Z,98788.88
2023-01-17T18:07:15.814Z,98796.28
2023-01-17T18:12:17.257Z,98804.44
2023-01-17T18:17:20.378Z,98806.06
2023-01-17T18:22:21.924Z,98813.16
2023-01-17T18:27:23.339Z,98829.75
2023-01-17T18:32:25.092Z,98828.25
2023-01-17T18:37:28.364Z,98837.00
2023-01-17T18:42:30.071Z,98830.31
2023-01-17T18:47:31.913Z,98832.41
2023-01-17T18:52:35.103Z,98836.97
2023-01-17T18:57:37.683Z,98845.25
2023-01-17T19:02:39.307Z,98848.44
2023-01-17T19:07:40.803Z,98841.63
2023-01-17T19:12:44.498Z,98848.66
2023-01-17T19:17:46.138Z,98854.53
2023-01-17T19:22:47.942Z,98863.69
2023-01-17T19:27:49.583Z,98857.75
2023-01-17T19:32:56.795Z,98857.75
2023-01-17T19:37:59.262Z,98876.06
2023-01-17T19:43:00.689Z,98869.81
2023-01-17T19:48:02.411Z,98872.28
2023-01-17T19:53:04.184Z,98882.44
2023-01-17T19:58:05.727Z,98869.88
2023-01-17T20:03:07.232Z,98868.00
2023-01-17T20:08:09.834Z,98873.81
2023-01-17T20:13:11.457Z,98868.53
2023-01-17T20:18:13.901Z,98878.53
2023-01-17T20:23:15.362Z,98869.91
2023-01-17T20:28:16.803Z,98876.44
2023-01-17T20:33:18.738Z,98873.25
2023-01-17T20:38:20.415Z,98873.56
2023-01-17T20:43:21.830Z,98875.06
2023-01-17T20:48:24.408Z,98875.31
2023-01-17T20:53:26.035Z,98880.44
2023-01-17T20:58:27.893Z,98892.19
2023-01-17T21:03:29.594Z,98895.31
2023-01-17T21:08:32.794Z,98894.31
2023-01-17T21:13:34.505Z,98885.50
2023-01-17T21:18:36.273Z,98891.09
2023-01-17T21:23:40.612Z,98892.66
2023-01-17T21:28:43.819Z,98893.59
2023-01-17T21:33:56.735Z,98892.53
2023-01-17T21:39:04.232Z,98891.91
2023-01-17T21:44:10.921Z,98896.59
2023-01-17T21:49:15.020Z,98896.72
2023-01-17T21:54:42.527Z,98899.19
2023-01-17T21:59:43.964Z,98902.66
2023-01-17T22:04:45.369Z,98897.63
2023-01-17T22:09:46.807Z,98883.22
2023-01-17T22:14:49.876Z,98888.69
2023-01-17T22:19:51.401Z,98892.63
2023-01-17T22:24:52.797Z,98892.22
2023-01-17T22:29:54.309Z,98894.72
2023-01-17T22:34:56.916Z,98893.94
2023-01-17T22:40:00.680Z,98889.16
2023-01-17T22:45:02.559Z,98895.41
2023-01-17T22:50:05.915Z,98898.59
2023-01-17T22:55:07.594Z,98907.44
2023-01-17T23:00:14.721Z,98915.16
2023-01-17T23:05:16.293Z,98924.41
2023-01-17T23:10:40.913Z,98924.00
2023-01-17T23:16:00.709Z,98927.50
2023-01-17T23:21:02.302Z,98938.81
2023-01-17T23:26:03.938Z,98930.97
2023-01-17T23:31:06.361Z,98942.00
2023-01-17T23:36:09.358Z,98937.41
2023-01-17T23:41:29.473Z,98938.06
2023-01-17T23:46:31.088Z,98937.06
2023-01-17T23:51:32.551Z,98937.06
2023-01-17T23:56:33.962Z,98935.31
